KSQI

Whiteside Co Arpt-Jos H Bittorf Field Airport

Sterling/Rockfalls, Illinois, USA
METAR KSQI 160056Z AUTO 01003KT 7SM CLR 00/M01 A3015 RMK AO2 SLP235 T00001011 FZRANO
Observed Flight Rules
Dec-16 @ 00:56 UTC (54 minutes ago) Visual Flight Rules
Wind Visibility Clouds
10° at 3 knots 7 miles
  • Clear skies
Temperatures Readings
Current 0°C / 32°F
Dewpoint -1°C / 30°F
Humidity 93%
Altimeter 30.15" Hg
Pressure 1023.5 hPa
Elevation 197
METAR KSQI 160056Z AUTO 01003KT 7SM CLR 00/M01 A3015 RMK AO2 SLP235 T00001011 FZRANO
Observed Flight Rules
Dec-16 @ 00:56 UTC
(54 minutes ago)
VFR
Wind Visibility
10° at 3 knots 7 miles
Clouds
  • Clear skies
Temperature Dewpoint
0°C / 32°F -1°C / 30°F
Humidity Altimeter Pressure
93% 30.15" Hg 1023.5 hPa